sensor_id;sensor_type;location;lat;lon;timestamp;P1;durP1;ratioP1;P2;durP2;ratioP2
70592;SDS011;58294;42.988;20.338;2022-09-09T00:01:06;17.20;;;10.80;;
70592;SDS011;58294;42.988;20.338;2022-09-09T00:17:01;21.70;;;13.00;;
70592;SDS011;58294;42.988;20.338;2022-09-09T00:19:54;17.38;;;11.45;;
70592;SDS011;58294;42.988;20.338;2022-09-09T00:22:27;18.48;;;12.45;;
70592;SDS011;58294;42.988;20.338;2022-09-09T00:24:58;18.67;;;12.13;;
70592;SDS011;58294;42.988;20.338;2022-09-09T00:27:56;19.40;;;10.57;;
70592;SDS011;58294;42.988;20.338;2022-09-09T00:30:25;14.93;;;10.43;;
70592;SDS011;58294;42.988;20.338;2022-09-09T00:33:00;14.85;;;10.02;;
70592;SDS011;58294;42.988;20.338;2022-09-09T00:35:37;11.65;;;7.57;;
70592;SDS011;58294;42.988;20.338;2022-09-09T00:38:49;15.85;;;10.38;;
70592;SDS011;58294;42.988;20.338;2022-09-09T00:41:03;18.83;;;10.60;;
70592;SDS011;58294;42.988;20.338;2022-09-09T00:43:57;16.75;;;10.05;;
70592;SDS011;58294;42.988;20.338;2022-09-09T00:46:33;15.10;;;9.90;;
70592;SDS011;58294;42.988;20.338;2022-09-09T00:57:34;16.75;;;9.50;;
70592;SDS011;58294;42.988;20.338;2022-09-09T01:05:38;14.60;;;8.38;;
70592;SDS011;58294;42.988;20.338;2022-09-09T01:14:00;15.32;;;8.23;;
70592;SDS011;58294;42.988;20.338;2022-09-09T01:16:46;8.98;;;7.95;;
70592;SDS011;58294;42.988;20.338;2022-09-09T01:19:15;15.77;;;8.95;;
70592;SDS011;58294;42.988;20.338;2022-09-09T01:21:57;11.80;;;7.88;;
70592;SDS011;58294;42.988;20.338;2022-09-09T01:27:57;16.47;;;10.20;;
70592;SDS011;58294;42.988;20.338;2022-09-09T01:30:27;13.10;;;8.43;;
70592;SDS011;58294;42.988;20.338;2022-09-09T01:32:54;12.43;;;8.85;;
70592;SDS011;58294;42.988;20.338;2022-09-09T01:38:15;11.90;;;8.10;;
70592;SDS011;58294;42.988;20.338;2022-09-09T01:40:42;16.83;;;9.48;;
70592;SDS011;58294;42.988;20.338;2022-09-09T01:43:08;15.90;;;9.30;;
70592;SDS011;58294;42.988;20.338;2022-09-09T01:45:34;12.27;;;9.02;;
70592;SDS011;58294;42.988;20.338;2022-09-09T01:48:00;15.98;;;10.60;;
70592;SDS011;58294;42.988;20.338;2022-09-09T01:50:28;19.60;;;11.77;;
70592;SDS011;58294;42.988;20.338;2022-09-09T01:52:55;21.00;;;12.60;;
70592;SDS011;58294;42.988;20.338;2022-09-09T01:55:39;18.15;;;11.05;;
70592;SDS011;58294;42.988;20.338;2022-09-09T02:00:51;18.23;;;11.85;;
70592;SDS011;58294;42.988;20.338;2022-09-09T02:03:35;14.20;;;11.05;;
70592;SDS011;58294;42.988;20.338;2022-09-09T02:08:59;19.58;;;12.32;;
70592;SDS011;58294;42.988;20.338;2022-09-09T02:11:29;23.25;;;13.75;;
70592;SDS011;58294;42.988;20.338;2022-09-09T02:14:15;16.65;;;12.07;;
70592;SDS011;58294;42.988;20.338;2022-09-09T02:16:55;13.75;;;10.10;;
70592;SDS011;58294;42.988;20.338;2022-09-09T02:19:27;9.98;;;8.60;;
70592;SDS011;58294;42.988;20.338;2022-09-09T02:22:00;12.90;;;8.88;;
70592;SDS011;58294;42.988;20.338;2022-09-09T02:24:27;12.60;;;9.07;;
70592;SDS011;58294;42.988;20.338;2022-09-09T02:26:58;12.73;;;8.75;;
70592;SDS011;58294;42.988;20.338;2022-09-09T02:29:30;17.58;;;10.55;;
70592;SDS011;58294;42.988;20.338;2022-09-09T02:32:00;13.50;;;9.45;;
70592;SDS011;58294;42.988;20.338;2022-09-09T02:34:29;14.10;;;9.23;;
70592;SDS011;58294;42.988;20.338;2022-09-09T02:36:57;12.38;;;8.57;;
70592;SDS011;58294;42.988;20.338;2022-09-09T02:39:25;12.93;;;8.70;;
70592;SDS011;58294;42.988;20.338;2022-09-09T02:41:51;10.75;;;8.18;;
70592;SDS011;58294;42.988;20.338;2022-09-09T02:44:18;11.32;;;8.25;;
70592;SDS011;58294;42.988;20.338;2022-09-09T02:46:48;9.50;;;7.97;;
70592;SDS011;58294;42.988;20.338;2022-09-09T02:49:44;14.43;;;8.00;;
70592;SDS011;58294;42.988;20.338;2022-09-09T02:52:37;11.60;;;8.13;;
70592;SDS011;58294;42.988;20.338;2022-09-09T02:55:41;19.80;;;8.88;;
70592;SDS011;58294;42.988;20.338;2022-09-09T02:58:34;18.45;;;8.55;;
70592;SDS011;58294;42.988;20.338;2022-09-09T03:01:01;11.98;;;7.85;;
70592;SDS011;58294;42.988;20.338;2022-09-09T03:03:28;12.27;;;8.40;;
70592;SDS011;58294;42.988;20.338;2022-09-09T03:05:55;12.30;;;8.88;;
70592;SDS011;58294;42.988;20.338;2022-09-09T03:08:22;13.50;;;8.77;;
70592;SDS011;58294;42.988;20.338;2022-09-09T03:10:48;15.15;;;8.50;;
70592;SDS011;58294;42.988;20.338;2022-09-09T03:13:14;15.52;;;9.10;;
70592;SDS011;58294;42.988;20.338;2022-09-09T03:15:40;13.63;;;8.60;;
70592;SDS011;58294;42.988;20.338;2022-09-09T03:18:07;10.80;;;8.02;;
70592;SDS011;58294;42.988;20.338;2022-09-09T03:20:32;14.80;;;8.95;;
70592;SDS011;58294;42.988;20.338;2022-09-09T03:22:59;15.75;;;8.70;;
70592;SDS011;58294;42.988;20.338;2022-09-09T03:25:25;15.50;;;8.68;;
70592;SDS011;58294;42.988;20.338;2022-09-09T03:27:52;23.30;;;9.45;;
70592;SDS011;58294;42.988;20.338;2022-09-09T03:30:23;12.60;;;8.45;;
70592;SDS011;58294;42.988;20.338;2022-09-09T03:32:50;14.60;;;9.85;;
70592;SDS011;58294;42.988;20.338;2022-09-09T03:35:17;10.10;;;8.23;;
70592;SDS011;58294;42.988;20.338;2022-09-09T03:37:43;13.73;;;9.60;;
70592;SDS011;58294;42.988;20.338;2022-09-09T03:40:09;12.93;;;8.15;;
70592;SDS011;58294;42.988;20.338;2022-09-09T03:42:36;13.98;;;8.40;;
70592;SDS011;58294;42.988;20.338;2022-09-09T03:45:03;14.52;;;8.98;;
70592;SDS011;58294;42.988;20.338;2022-09-09T03:47:30;12.00;;;8.27;;
70592;SDS011;58294;42.988;20.338;2022-09-09T03:49:56;18.25;;;8.65;;
70592;SDS011;58294;42.988;20.338;2022-09-09T03:52:21;12.43;;;8.88;;
70592;SDS011;58294;42.988;20.338;2022-09-09T03:54:50;18.52;;;8.95;;
70592;SDS011;58294;42.988;20.338;2022-09-09T03:57:16;14.55;;;8.57;;
70592;SDS011;58294;42.988;20.338;2022-09-09T03:59:43;11.40;;;8.35;;
70592;SDS011;58294;42.988;20.338;2022-09-09T04:02:09;12.20;;;8.73;;
70592;SDS011;58294;42.988;20.338;2022-09-09T04:04:35;13.63;;;8.65;;
70592;SDS011;58294;42.988;20.338;2022-09-09T04:07:01;10.98;;;7.90;;
70592;SDS011;58294;42.988;20.338;2022-09-09T04:09:27;15.00;;;8.88;;
70592;SDS011;58294;42.988;20.338;2022-09-09T04:11:53;15.15;;;8.82;;
70592;SDS011;58294;42.988;20.338;2022-09-09T04:14:19;12.00;;;9.05;;
70592;SDS011;58294;42.988;20.338;2022-09-09T04:16:46;16.77;;;10.43;;
70592;SDS011;58294;42.988;20.338;2022-09-09T04:19:12;16.42;;;10.00;;
70592;SDS011;58294;42.988;20.338;2022-09-09T04:21:39;11.98;;;8.95;;
70592;SDS011;58294;42.988;20.338;2022-09-09T04:24:07;13.23;;;10.05;;
70592;SDS011;58294;42.988;20.338;2022-09-09T04:26:33;13.60;;;8.98;;
70592;SDS011;58294;42.988;20.338;2022-09-09T04:29:01;13.43;;;8.60;;
70592;SDS011;58294;42.988;20.338;2022-09-09T04:31:27;14.05;;;10.07;;
70592;SDS011;58294;42.988;20.338;2022-09-09T04:33:54;12.93;;;9.50;;
70592;SDS011;58294;42.988;20.338;2022-09-09T04:36:20;14.07;;;8.77;;
70592;SDS011;58294;42.988;20.338;2022-09-09T04:38:46;13.48;;;9.93;;
70592;SDS011;58294;42.988;20.338;2022-09-09T04:41:13;13.98;;;9.20;;
70592;SDS011;58294;42.988;20.338;2022-09-09T04:43:41;11.35;;;8.98;;
70592;SDS011;58294;42.988;20.338;2022-09-09T04:46:08;13.95;;;8.90;;
70592;SDS011;58294;42.988;20.338;2022-09-09T04:48:34;15.55;;;9.25;;
70592;SDS011;58294;42.988;20.338;2022-09-09T04:51:02;11.10;;;9.98;;
70592;SDS011;58294;42.988;20.338;2022-09-09T04:53:32;15.85;;;9.88;;
70592;SDS011;58294;42.988;20.338;2022-09-09T04:56:05;13.52;;;8.90;;
70592;SDS011;58294;42.988;20.338;2022-09-09T04:58:32;11.45;;;9.20;;
70592;SDS011;58294;42.988;20.338;2022-09-09T05:01:06;15.00;;;9.95;;
70592;SDS011;58294;42.988;20.338;2022-09-09T05:03:33;24.15;;;10.13;;
70592;SDS011;58294;42.988;20.338;2022-09-09T05:06:05;14.63;;;10.23;;
70592;SDS011;58294;42.988;20.338;2022-09-09T05:08:39;15.60;;;9.60;;
70592;SDS011;58294;42.988;20.338;2022-09-09T05:11:14;15.23;;;9.57;;
70592;SDS011;58294;42.988;20.338;2022-09-09T05:13:44;12.30;;;9.75;;
70592;SDS011;58294;42.988;20.338;2022-09-09T05:16:11;11.30;;;9.43;;
70592;SDS011;58294;42.988;20.338;2022-09-09T05:18:38;14.82;;;9.68;;
70592;SDS011;58294;42.988;20.338;2022-09-09T05:21:05;13.52;;;10.00;;
70592;SDS011;58294;42.988;20.338;2022-09-09T05:23:32;16.10;;;10.13;;
70592;SDS011;58294;42.988;20.338;2022-09-09T05:25:58;17.45;;;10.55;;
70592;SDS011;58294;42.988;20.338;2022-09-09T05:28:25;11.60;;;9.35;;
70592;SDS011;58294;42.988;20.338;2022-09-09T05:31:02;14.75;;;10.27;;
70592;SDS011;58294;42.988;20.338;2022-09-09T05:33:30;12.50;;;10.73;;
70592;SDS011;58294;42.988;20.338;2022-09-09T05:35:58;14.07;;;11.50;;
70592;SDS011;58294;42.988;20.338;2022-09-09T05:38:26;17.58;;;11.60;;
70592;SDS011;58294;42.988;20.338;2022-09-09T05:40:53;19.83;;;12.70;;
70592;SDS011;58294;42.988;20.338;2022-09-09T05:43:19;15.27;;;11.63;;
70592;SDS011;58294;42.988;20.338;2022-09-09T05:45:48;20.30;;;12.32;;
70592;SDS011;58294;42.988;20.338;2022-09-09T05:48:27;20.52;;;12.40;;
70592;SDS011;58294;42.988;20.338;2022-09-09T05:50:53;16.58;;;11.65;;
70592;SDS011;58294;42.988;20.338;2022-09-09T05:53:19;16.23;;;10.45;;
70592;SDS011;58294;42.988;20.338;2022-09-09T05:55:45;15.23;;;11.38;;
70592;SDS011;58294;42.988;20.338;2022-09-09T05:58:12;13.82;;;10.95;;
70592;SDS011;58294;42.988;20.338;2022-09-09T06:00:39;15.90;;;13.30;;
70592;SDS011;58294;42.988;20.338;2022-09-09T06:03:05;21.98;;;16.40;;
70592;SDS011;58294;42.988;20.338;2022-09-09T06:05:31;14.20;;;10.40;;
70592;SDS011;58294;42.988;20.338;2022-09-09T06:07:58;15.45;;;10.57;;
70592;SDS011;58294;42.988;20.338;2022-09-09T06:10:24;19.00;;;13.65;;
70592;SDS011;58294;42.988;20.338;2022-09-09T06:12:52;17.60;;;12.10;;
70592;SDS011;58294;42.988;20.338;2022-09-09T06:15:18;14.52;;;10.23;;
70592;SDS011;58294;42.988;20.338;2022-09-09T06:17:44;15.40;;;10.98;;
70592;SDS011;58294;42.988;20.338;2022-09-09T06:20:10;14.93;;;11.40;;
70592;SDS011;58294;42.988;20.338;2022-09-09T06:22:39;14.88;;;11.10;;
70592;SDS011;58294;42.988;20.338;2022-09-09T06:25:06;18.85;;;11.30;;
70592;SDS011;58294;42.988;20.338;2022-09-09T06:27:33;18.60;;;11.02;;
70592;SDS011;58294;42.988;20.338;2022-09-09T06:29:59;12.63;;;10.05;;
70592;SDS011;58294;42.988;20.338;2022-09-09T06:32:25;17.45;;;11.95;;
70592;SDS011;58294;42.988;20.338;2022-09-09T06:34:52;17.85;;;11.05;;
70592;SDS011;58294;42.988;20.338;2022-09-09T06:37:17;28.45;;;13.35;;
70592;SDS011;58294;42.988;20.338;2022-09-09T06:39:43;15.48;;;10.55;;
70592;SDS011;58294;42.988;20.338;2022-09-09T06:42:09;15.95;;;10.55;;
70592;SDS011;58294;42.988;20.338;2022-09-09T06:44:35;16.77;;;11.13;;
70592;SDS011;58294;42.988;20.338;2022-09-09T06:47:01;21.67;;;12.48;;
70592;SDS011;58294;42.988;20.338;2022-09-09T06:49:27;21.95;;;12.60;;
70592;SDS011;58294;42.988;20.338;2022-09-09T06:51:53;23.05;;;12.70;;
70592;SDS011;58294;42.988;20.338;2022-09-09T06:54:19;20.05;;;12.55;;
70592;SDS011;58294;42.988;20.338;2022-09-09T06:56:47;23.48;;;14.27;;
70592;SDS011;58294;42.988;20.338;2022-09-09T06:59:15;23.30;;;12.98;;
70592;SDS011;58294;42.988;20.338;2022-09-09T07:01:41;20.75;;;12.80;;
70592;SDS011;58294;42.988;20.338;2022-09-09T07:04:18;20.27;;;12.60;;
70592;SDS011;58294;42.988;20.338;2022-09-09T07:06:44;19.48;;;13.93;;
70592;SDS011;58294;42.988;20.338;2022-09-09T07:09:12;18.08;;;14.32;;
70592;SDS011;58294;42.988;20.338;2022-09-09T07:11:41;19.10;;;11.52;;
70592;SDS011;58294;42.988;20.338;2022-09-09T07:14:14;21.65;;;14.18;;
70592;SDS011;58294;42.988;20.338;2022-09-09T07:16:41;21.30;;;13.52;;
70592;SDS011;58294;42.988;20.338;2022-09-09T07:19:07;21.35;;;14.23;;
70592;SDS011;58294;42.988;20.338;2022-09-09T07:21:34;19.02;;;12.77;;
70592;SDS011;58294;42.988;20.338;2022-09-09T07:24:01;16.17;;;12.57;;
70592;SDS011;58294;42.988;20.338;2022-09-09T07:26:28;26.33;;;14.27;;
70592;SDS011;58294;42.988;20.338;2022-09-09T07:28:55;17.13;;;14.15;;
70592;SDS011;58294;42.988;20.338;2022-09-09T07:31:29;17.42;;;11.40;;
70592;SDS011;58294;42.988;20.338;2022-09-09T07:36:27;29.50;;;15.50;;
70592;SDS011;58294;42.988;20.338;2022-09-09T07:38:55;18.17;;;13.73;;
70592;SDS011;58294;42.988;20.338;2022-09-09T07:43:57;18.73;;;15.25;;
70592;SDS011;58294;42.988;20.338;2022-09-09T07:46:24;23.88;;;17.90;;
70592;SDS011;58294;42.988;20.338;2022-09-09T07:48:54;24.88;;;16.90;;
70592;SDS011;58294;42.988;20.338;2022-09-09T07:51:28;23.30;;;14.77;;
70592;SDS011;58294;42.988;20.338;2022-09-09T07:53:57;22.98;;;15.60;;
70592;SDS011;58294;42.988;20.338;2022-09-09T07:56:24;28.70;;;17.45;;
70592;SDS011;58294;42.988;20.338;2022-09-09T07:58:52;25.20;;;17.83;;
70592;SDS011;58294;42.988;20.338;2022-09-09T08:01:29;26.17;;;17.92;;
70592;SDS011;58294;42.988;20.338;2022-09-09T08:04:00;20.38;;;13.77;;
70592;SDS011;58294;42.988;20.338;2022-09-09T08:06:31;19.70;;;14.40;;
70592;SDS011;58294;42.988;20.338;2022-09-09T08:08:59;16.75;;;12.38;;
70592;SDS011;58294;42.988;20.338;2022-09-09T08:11:26;16.15;;;11.77;;
70592;SDS011;58294;42.988;20.338;2022-09-09T08:13:53;15.68;;;11.40;;
70592;SDS011;58294;42.988;20.338;2022-09-09T08:16:21;16.00;;;12.32;;
70592;SDS011;58294;42.988;20.338;2022-09-09T08:18:51;22.33;;;15.35;;
70592;SDS011;58294;42.988;20.338;2022-09-09T08:21:20;19.35;;;16.00;;
70592;SDS011;58294;42.988;20.338;2022-09-09T08:23:49;19.48;;;15.43;;
70592;SDS011;58294;42.988;20.338;2022-09-09T08:26:18;24.88;;;17.15;;
70592;SDS011;58294;42.988;20.338;2022-09-09T08:28:51;27.73;;;19.02;;
70592;SDS011;58294;42.988;20.338;2022-09-09T08:31:22;20.55;;;18.25;;
70592;SDS011;58294;42.988;20.338;2022-09-09T08:33:55;26.63;;;19.73;;
70592;SDS011;58294;42.988;20.338;2022-09-09T08:36:25;24.40;;;15.48;;
70592;SDS011;58294;42.988;20.338;2022-09-09T08:38:53;29.02;;;20.75;;
70592;SDS011;58294;42.988;20.338;2022-09-09T08:41:30;27.73;;;23.45;;
70592;SDS011;58294;42.988;20.338;2022-09-09T08:50:02;28.33;;;22.42;;
70592;SDS011;58294;42.988;20.338;2022-09-09T08:58:45;22.75;;;16.55;;
70592;SDS011;58294;42.988;20.338;2022-09-09T09:11:57;26.90;;;15.07;;
70592;SDS011;58294;42.988;20.338;2022-09-09T09:14:27;23.60;;;13.77;;
70592;SDS011;58294;42.988;20.338;2022-09-09T09:17:03;17.00;;;13.60;;
70592;SDS011;58294;42.988;20.338;2022-09-09T09:19:34;17.38;;;13.77;;
70592;SDS011;58294;42.988;20.338;2022-09-09T09:22:22;21.52;;;14.50;;
70592;SDS011;58294;42.988;20.338;2022-09-09T09:27:25;15.88;;;11.35;;
70592;SDS011;58294;42.988;20.338;2022-09-09T09:29:58;19.42;;;15.32;;
70592;SDS011;58294;42.988;20.338;2022-09-09T09:32:25;19.00;;;13.57;;
70592;SDS011;58294;42.988;20.338;2022-09-09T09:34:56;15.48;;;11.57;;
70592;SDS011;58294;42.988;20.338;2022-09-09T09:37:30;14.98;;;13.38;;
70592;SDS011;58294;42.988;20.338;2022-09-09T09:40:19;13.00;;;11.65;;
70592;SDS011;58294;42.988;20.338;2022-09-09T09:42:51;13.20;;;11.63;;
70592;SDS011;58294;42.988;20.338;2022-09-09T09:48:13;15.68;;;10.35;;
70592;SDS011;58294;42.988;20.338;2022-09-09T09:53:18;12.60;;;10.85;;
70592;SDS011;58294;42.988;20.338;2022-09-09T09:56:07;12.30;;;8.88;;
70592;SDS011;58294;42.988;20.338;2022-09-09T09:58:47;10.15;;;8.10;;
70592;SDS011;58294;42.988;20.338;2022-09-09T10:04:02;11.80;;;7.70;;
70592;SDS011;58294;42.988;20.338;2022-09-09T10:06:44;10.80;;;7.18;;
70592;SDS011;58294;42.988;20.338;2022-09-09T10:09:21;7.57;;;6.32;;
70592;SDS011;58294;42.988;20.338;2022-09-09T10:19:42;7.32;;;6.63;;
70592;SDS011;58294;42.988;20.338;2022-09-09T10:22:32;15.52;;;9.80;;
70592;SDS011;58294;42.988;20.338;2022-09-09T10:30:38;10.63;;;9.55;;
70592;SDS011;58294;42.988;20.338;2022-09-09T10:36:12;7.60;;;6.85;;
70592;SDS011;58294;42.988;20.338;2022-09-09T10:39:06;9.00;;;6.80;;
70592;SDS011;58294;42.988;20.338;2022-09-09T11:00:20;7.43;;;5.15;;
70592;SDS011;58294;42.988;20.338;2022-09-09T11:02:52;5.32;;;4.30;;
70592;SDS011;58294;42.988;20.338;2022-09-09T11:05:36;5.05;;;3.80;;
70592;SDS011;58294;42.988;20.338;2022-09-09T11:08:10;4.57;;;3.97;;
70592;SDS011;58294;42.988;20.338;2022-09-09T11:10:40;6.05;;;3.75;;
70592;SDS011;58294;42.988;20.338;2022-09-09T11:19:00;5.00;;;4.35;;
70592;SDS011;58294;42.988;20.338;2022-09-09T11:21:47;5.03;;;3.83;;
70592;SDS011;58294;42.988;20.338;2022-09-09T11:24:20;7.65;;;3.63;;
70592;SDS011;58294;42.988;20.338;2022-09-09T11:38:19;6.03;;;5.25;;
70592;SDS011;58294;42.988;20.338;2022-09-09T11:40:46;5.45;;;4.60;;
70592;SDS011;58294;42.988;20.338;2022-09-09T11:43:23;5.38;;;4.40;;
70592;SDS011;58294;42.988;20.338;2022-09-09T11:45:53;7.45;;;4.00;;
70592;SDS011;58294;42.988;20.338;2022-09-09T11:53:34;7.13;;;4.70;;
70592;SDS011;58294;42.988;20.338;2022-09-09T11:56:05;7.40;;;5.32;;
70592;SDS011;58294;42.988;20.338;2022-09-09T11:58:58;10.45;;;5.00;;
70592;SDS011;58294;42.988;20.338;2022-09-09T12:01:33;13.68;;;5.22;;
70592;SDS011;58294;42.988;20.338;2022-09-09T12:04:11;8.75;;;5.13;;
70592;SDS011;58294;42.988;20.338;2022-09-09T12:09:28;10.18;;;5.13;;
70592;SDS011;58294;42.988;20.338;2022-09-09T12:17:10;7.63;;;4.60;;
70592;SDS011;58294;42.988;20.338;2022-09-09T12:19:45;6.68;;;4.57;;
70592;SDS011;58294;42.988;20.338;2022-09-09T12:30:41;7.82;;;4.57;;
70592;SDS011;58294;42.988;20.338;2022-09-09T12:33:12;12.77;;;5.22;;
70592;SDS011;58294;42.988;20.338;2022-09-09T12:35:41;14.05;;;7.10;;
70592;SDS011;58294;42.988;20.338;2022-09-09T12:38:12;7.97;;;5.90;;
70592;SDS011;58294;42.988;20.338;2022-09-09T12:40:55;15.13;;;6.35;;
70592;SDS011;58294;42.988;20.338;2022-09-09T12:45:49;6.15;;;4.68;;
70592;SDS011;58294;42.988;20.338;2022-09-09T12:48:23;8.98;;;4.72;;
70592;SDS011;58294;42.988;20.338;2022-09-09T12:51:01;10.27;;;5.40;;
70592;SDS011;58294;42.988;20.338;2022-09-09T12:53:34;10.32;;;5.57;;
70592;SDS011;58294;42.988;20.338;2022-09-09T12:56:17;6.90;;;5.13;;
70592;SDS011;58294;42.988;20.338;2022-09-09T12:58:46;12.47;;;6.80;;
70592;SDS011;58294;42.988;20.338;2022-09-09T13:01:25;12.02;;;6.68;;
70592;SDS011;58294;42.988;20.338;2022-09-09T13:03:53;11.35;;;6.07;;
70592;SDS011;58294;42.988;20.338;2022-09-09T13:06:20;8.27;;;5.03;;
70592;SDS011;58294;42.988;20.338;2022-09-09T13:08:53;8.07;;;6.03;;
70592;SDS011;58294;42.988;20.338;2022-09-09T13:11:22;11.63;;;5.95;;
70592;SDS011;58294;42.988;20.338;2022-09-09T13:13:54;8.07;;;4.80;;
70592;SDS011;58294;42.988;20.338;2022-09-09T13:18:50;5.95;;;4.72;;
70592;SDS011;58294;42.988;20.338;2022-09-09T13:21:16;7.93;;;4.20;;
70592;SDS011;58294;42.988;20.338;2022-09-09T13:23:47;10.32;;;5.47;;
70592;SDS011;58294;42.988;20.338;2022-09-09T13:26:22;7.47;;;4.50;;
70592;SDS011;58294;42.988;20.338;2022-09-09T13:28:51;16.67;;;6.57;;
70592;SDS011;58294;42.988;20.338;2022-09-09T13:31:32;10.13;;;4.60;;
70592;SDS011;58294;42.988;20.338;2022-09-09T13:34:10;8.13;;;4.75;;
70592;SDS011;58294;42.988;20.338;2022-09-09T13:36:52;10.18;;;4.25;;
70592;SDS011;58294;42.988;20.338;2022-09-09T13:39:21;4.75;;;3.47;;
70592;SDS011;58294;42.988;20.338;2022-09-09T13:41:48;6.30;;;4.10;;
70592;SDS011;58294;42.988;20.338;2022-09-09T13:44:17;7.00;;;4.63;;
70592;SDS011;58294;42.988;20.338;2022-09-09T13:46:58;9.07;;;5.20;;
70592;SDS011;58294;42.988;20.338;2022-09-09T13:49:28;6.57;;;4.97;;
70592;SDS011;58294;42.988;20.338;2022-09-09T13:52:05;8.98;;;5.85;;
70592;SDS011;58294;42.988;20.338;2022-09-09T13:54:39;8.88;;;5.47;;
70592;SDS011;58294;42.988;20.338;2022-09-09T13:57:13;15.70;;;7.60;;
70592;SDS011;58294;42.988;20.338;2022-09-09T13:59:44;12.10;;;6.90;;
70592;SDS011;58294;42.988;20.338;2022-09-09T14:02:11;8.02;;;4.60;;
70592;SDS011;58294;42.988;20.338;2022-09-09T14:04:37;5.22;;;4.15;;
70592;SDS011;58294;42.988;20.338;2022-09-09T14:07:07;10.60;;;7.45;;
70592;SDS011;58294;42.988;20.338;2022-09-09T14:09:37;15.05;;;9.48;;
70592;SDS011;58294;42.988;20.338;2022-09-09T14:12:04;11.18;;;9.07;;
70592;SDS011;58294;42.988;20.338;2022-09-09T14:14:30;12.77;;;7.90;;
70592;SDS011;58294;42.988;20.338;2022-09-09T14:16:55;15.07;;;8.55;;
70592;SDS011;58294;42.988;20.338;2022-09-09T14:19:21;13.13;;;8.50;;
70592;SDS011;58294;42.988;20.338;2022-09-09T14:21:47;14.60;;;7.57;;
70592;SDS011;58294;42.988;20.338;2022-09-09T14:24:13;12.57;;;6.65;;
70592;SDS011;58294;42.988;20.338;2022-09-09T14:26:39;9.70;;;6.68;;
70592;SDS011;58294;42.988;20.338;2022-09-09T14:29:05;8.35;;;6.50;;
70592;SDS011;58294;42.988;20.338;2022-09-09T14:31:31;7.82;;;6.15;;
70592;SDS011;58294;42.988;20.338;2022-09-09T14:33:58;11.00;;;7.18;;
70592;SDS011;58294;42.988;20.338;2022-09-09T14:36:24;8.30;;;7.40;;
70592;SDS011;58294;42.988;20.338;2022-09-09T14:38:50;9.52;;;8.07;;
70592;SDS011;58294;42.988;20.338;2022-09-09T14:41:18;6.20;;;4.88;;
70592;SDS011;58294;42.988;20.338;2022-09-09T14:43:45;7.65;;;4.60;;
70592;SDS011;58294;42.988;20.338;2022-09-09T14:46:12;11.93;;;7.43;;
70592;SDS011;58294;42.988;20.338;2022-09-09T14:48:40;7.07;;;5.82;;
70592;SDS011;58294;42.988;20.338;2022-09-09T14:53:38;10.45;;;6.10;;
70592;SDS011;58294;42.988;20.338;2022-09-09T14:56:09;10.68;;;6.63;;
70592;SDS011;58294;42.988;20.338;2022-09-09T14:58:36;6.70;;;4.95;;
70592;SDS011;58294;42.988;20.338;2022-09-09T15:01:08;5.47;;;4.10;;
70592;SDS011;58294;42.988;20.338;2022-09-09T15:03:36;10.43;;;5.28;;
70592;SDS011;58294;42.988;20.338;2022-09-09T15:08:34;10.70;;;7.50;;
70592;SDS011;58294;42.988;20.338;2022-09-09T15:11:03;10.20;;;6.05;;
70592;SDS011;58294;42.988;20.338;2022-09-09T15:13:30;17.13;;;11.68;;
70592;SDS011;58294;42.988;20.338;2022-09-09T15:16:00;15.95;;;13.95;;
70592;SDS011;58294;42.988;20.338;2022-09-09T15:18:32;16.42;;;14.02;;
70592;SDS011;58294;42.988;20.338;2022-09-09T15:20:59;15.23;;;11.02;;
70592;SDS011;58294;42.988;20.338;2022-09-09T15:23:26;14.93;;;9.90;;
70592;SDS011;58294;42.988;20.338;2022-09-09T15:25:53;16.75;;;10.73;;
70592;SDS011;58294;42.988;20.338;2022-09-09T15:28:21;15.00;;;11.88;;
70592;SDS011;58294;42.988;20.338;2022-09-09T15:30:48;17.40;;;10.65;;
70592;SDS011;58294;42.988;20.338;2022-09-09T15:33:17;17.48;;;11.52;;
70592;SDS011;58294;42.988;20.338;2022-09-09T15:35:44;15.20;;;11.13;;
70592;SDS011;58294;42.988;20.338;2022-09-09T15:38:10;18.02;;;11.23;;
70592;SDS011;58294;42.988;20.338;2022-09-09T15:40:38;15.32;;;10.32;;
70592;SDS011;58294;42.988;20.338;2022-09-09T15:43:05;12.85;;;7.88;;
70592;SDS011;58294;42.988;20.338;2022-09-09T15:45:32;13.77;;;8.00;;
70592;SDS011;58294;42.988;20.338;2022-09-09T15:48:02;12.27;;;7.20;;
70592;SDS011;58294;42.988;20.338;2022-09-09T15:50:28;12.75;;;8.35;;
70592;SDS011;58294;42.988;20.338;2022-09-09T15:52:56;10.95;;;7.88;;
70592;SDS011;58294;42.988;20.338;2022-09-09T15:55:22;9.50;;;6.75;;
70592;SDS011;58294;42.988;20.338;2022-09-09T15:57:51;14.68;;;7.88;;
70592;SDS011;58294;42.988;20.338;2022-09-09T16:00:20;11.90;;;9.68;;
70592;SDS011;58294;42.988;20.338;2022-09-09T16:02:47;9.98;;;8.95;;
70592;SDS011;58294;42.988;20.338;2022-09-09T16:05:14;10.88;;;8.35;;
70592;SDS011;58294;42.988;20.338;2022-09-09T16:07:39;13.60;;;8.70;;
70592;SDS011;58294;42.988;20.338;2022-09-09T16:10:07;11.50;;;8.30;;
70592;SDS011;58294;42.988;20.338;2022-09-09T16:12:33;12.93;;;8.32;;
70592;SDS011;58294;42.988;20.338;2022-09-09T16:14:59;9.43;;;7.82;;
70592;SDS011;58294;42.988;20.338;2022-09-09T16:17:25;12.63;;;8.85;;
70592;SDS011;58294;42.988;20.338;2022-09-09T16:19:52;18.67;;;13.52;;
70592;SDS011;58294;42.988;20.338;2022-09-09T16:22:19;22.30;;;15.32;;
70592;SDS011;58294;42.988;20.338;2022-09-09T16:24:45;18.33;;;15.45;;
70592;SDS011;58294;42.988;20.338;2022-09-09T16:27:11;14.23;;;12.57;;
70592;SDS011;58294;42.988;20.338;2022-09-09T16:29:37;11.75;;;10.65;;
70592;SDS011;58294;42.988;20.338;2022-09-09T16:32:02;11.05;;;9.63;;
70592;SDS011;58294;42.988;20.338;2022-09-09T16:34:29;11.05;;;7.88;;
70592;SDS011;58294;42.988;20.338;2022-09-09T16:36:54;12.93;;;9.05;;
70592;SDS011;58294;42.988;20.338;2022-09-09T16:39:21;14.35;;;5.47;;
70592;SDS011;58294;42.988;20.338;2022-09-09T16:41:47;10.07;;;5.82;;
70592;SDS011;58294;42.988;20.338;2022-09-09T16:44:14;8.45;;;4.97;;
70592;SDS011;58294;42.988;20.338;2022-09-09T16:46:43;9.20;;;6.97;;
70592;SDS011;58294;42.988;20.338;2022-09-09T16:49:10;12.40;;;8.60;;
70592;SDS011;58294;42.988;20.338;2022-09-09T16:51:42;9.73;;;6.43;;
70592;SDS011;58294;42.988;20.338;2022-09-09T16:54:10;10.45;;;6.70;;
70592;SDS011;58294;42.988;20.338;2022-09-09T16:56:39;11.50;;;8.10;;
70592;SDS011;58294;42.988;20.338;2022-09-09T16:59:11;11.52;;;6.95;;
70592;SDS011;58294;42.988;20.338;2022-09-09T17:01:40;8.00;;;6.43;;
70592;SDS011;58294;42.988;20.338;2022-09-09T17:04:18;5.78;;;4.72;;
70592;SDS011;58294;42.988;20.338;2022-09-09T17:06:49;8.95;;;5.38;;
70592;SDS011;58294;42.988;20.338;2022-09-09T17:09:17;17.10;;;10.90;;
70592;SDS011;58294;42.988;20.338;2022-09-09T17:11:44;21.45;;;14.90;;
70592;SDS011;58294;42.988;20.338;2022-09-09T17:14:11;24.83;;;17.80;;
70592;SDS011;58294;42.988;20.338;2022-09-09T17:16:40;22.55;;;15.98;;
70592;SDS011;58294;42.988;20.338;2022-09-09T17:19:06;73.45;;;65.10;;
70592;SDS011;58294;42.988;20.338;2022-09-09T17:21:34;30.52;;;24.35;;
70592;SDS011;58294;42.988;20.338;2022-09-09T17:24:00;16.10;;;13.15;;